createdAt,value
2023-04-16T00:01:47.417Z,23.49
2023-04-16T00:04:14.347Z,23.50
2023-04-16T00:06:41.192Z,23.54
2023-04-16T00:09:09.534Z,23.54
2023-04-16T00:11:36.535Z,23.50
2023-04-16T00:14:03.335Z,23.49
2023-04-16T00:16:30.348Z,23.50
2023-04-16T00:18:57.165Z,23.47
2023-04-16T00:21:24.000Z,23.47
2023-04-16T00:23:50.864Z,23.45
2023-04-16T00:26:19.016Z,23.38
2023-04-16T00:28:45.828Z,23.34
2023-04-16T00:31:12.885Z,23.36
2023-04-16T00:33:39.737Z,23.35
2023-04-16T00:36:06.735Z,23.38
2023-04-16T00:38:33.586Z,23.35
2023-04-16T00:41:00.374Z,23.39
2023-04-16T00:43:28.542Z,23.45
2023-04-16T00:45:56.646Z,23.45
2023-04-16T00:48:23.658Z,23.45
2023-04-16T00:50:50.489Z,23.46
2023-04-16T00:53:17.392Z,23.39
2023-04-16T00:55:44.263Z,23.42
2023-04-16T00:58:11.189Z,23.44
2023-04-16T01:03:35.098Z,23.31
2023-04-16T01:06:02.813Z,23.35
2023-04-16T01:08:29.674Z,23.37
2023-04-16T01:10:56.492Z,23.37
2023-04-16T01:13:23.303Z,23.34
2023-04-16T01:15:51.709Z,23.36
2023-04-16T01:18:19.533Z,23.33
2023-04-16T01:20:47.819Z,23.30
2023-04-16T01:23:14.657Z,23.33
2023-04-16T01:25:41.488Z,23.30
2023-04-16T01:28:08.278Z,23.31
2023-04-16T01:30:35.120Z,23.35
2023-04-16T01:33:02.097Z,23.37
2023-04-16T01:35:29.007Z,23.37
2023-04-16T01:37:57.184Z,23.38
2023-04-16T01:40:24.049Z,23.38
2023-04-16T01:42:50.847Z,23.37
2023-04-16T01:45:17.765Z,23.36
2023-04-16T01:47:44.691Z,23.35
2023-04-16T01:50:11.575Z,23.36
2023-04-16T01:52:38.406Z,23.32
2023-04-16T01:55:07.037Z,23.32
2023-04-16T01:57:33.878Z,23.32
2023-04-16T02:00:00.772Z,23.27
2023-04-16T02:02:27.887Z,23.22
2023-04-16T02:04:55.535Z,23.24
2023-04-16T02:07:22.364Z,23.19
2023-04-16T02:09:49.269Z,23.22
2023-04-16T02:12:17.658Z,23.11
2023-04-16T02:14:44.495Z,23.24
2023-04-16T02:17:11.321Z,23.28
2023-04-16T02:19:38.118Z,23.32
2023-04-16T02:22:04.904Z,23.33
2023-04-16T02:24:31.735Z,23.34
2023-04-16T02:26:58.637Z,23.34
2023-04-16T02:29:26.960Z,23.34
2023-04-16T02:31:53.860Z,23.33
2023-04-16T02:34:20.723Z,23.32
2023-04-16T02:36:47.532Z,23.32
2023-04-16T02:39:14.334Z,23.28
2023-04-16T02:41:41.176Z,23.29
2023-04-16T02:44:08.010Z,23.28
2023-04-16T02:46:36.197Z,23.27
2023-04-16T02:49:03.027Z,23.20
2023-04-16T02:51:29.815Z,23.15
2023-04-16T02:53:56.641Z,23.18
2023-04-16T02:56:23.558Z,23.19
2023-04-16T02:58:50.361Z,23.14
2023-04-16T03:01:17.219Z,23.16
2023-04-16T03:03:45.546Z,23.33
2023-04-16T03:06:12.378Z,23.50
2023-04-16T03:08:39.254Z,23.83
2023-04-16T03:11:06.088Z,24.08
2023-04-16T03:13:33.125Z,24.21
2023-04-16T03:16:00.200Z,24.11
2023-04-16T03:18:27.067Z,24.07
2023-04-16T03:20:55.229Z,24.06
2023-04-16T03:23:22.043Z,24.03
2023-04-16T03:25:48.834Z,24.04
2023-04-16T03:28:15.627Z,24.04
2023-04-16T03:30:42.494Z,23.93
2023-04-16T03:33:09.282Z,23.92
2023-04-16T03:35:36.097Z,23.79
2023-04-16T03:38:04.259Z,23.66
2023-04-16T03:40:31.046Z,23.62
2023-04-16T03:42:57.830Z,23.61
2023-04-16T03:45:24.773Z,23.63
2023-04-16T03:47:51.617Z,23.62
2023-04-16T03:50:18.631Z,23.62
2023-04-16T03:52:45.453Z,23.66
2023-04-16T03:55:13.745Z,23.66
2023-04-16T03:57:40.651Z,23.65
2023-04-16T04:00:07.948Z,23.63
2023-04-16T04:02:34.866Z,23.62
2023-04-16T04:05:01.931Z,23.64
2023-04-16T04:07:28.778Z,23.57
2023-04-16T04:09:55.558Z,23.53
2023-04-16T04:12:23.776Z,23.56
2023-04-16T04:14:50.649Z,23.57
2023-04-16T04:17:17.438Z,23.54
2023-04-16T04:19:54.273Z,23.54
2023-04-16T04:22:27.647Z,23.52
2023-04-16T04:24:54.631Z,23.44
2023-04-16T04:27:21.437Z,23.40
2023-04-16T04:29:49.648Z,23.35
2023-04-16T04:32:16.440Z,23.33
2023-04-16T04:34:43.246Z,23.30
2023-04-16T04:37:10.053Z,23.32
2023-04-16T04:39:36.836Z,23.32
2023-04-16T04:42:03.846Z,23.32
2023-04-16T04:44:30.678Z,23.36
2023-04-16T04:46:58.856Z,23.35
2023-04-16T04:49:25.660Z,23.34
2023-04-16T04:51:52.567Z,23.33
2023-04-16T04:54:19.356Z,23.33
2023-04-16T04:56:46.145Z,23.34
2023-04-16T04:59:13.000Z,23.34
2023-04-16T05:01:39.864Z,23.35
2023-04-16T05:04:08.100Z,23.33
2023-04-16T05:06:34.988Z,23.31
2023-04-16T05:09:01.786Z,23.30
2023-04-16T05:11:28.601Z,23.24
2023-04-16T05:13:55.445Z,23.21
2023-04-16T05:16:22.273Z,23.20
2023-04-16T05:18:49.103Z,23.19
2023-04-16T05:21:17.292Z,23.21
2023-04-16T05:23:44.112Z,23.21
2023-04-16T05:26:10.902Z,23.28
2023-04-16T05:28:37.757Z,23.31
2023-04-16T05:31:04.772Z,23.33
2023-04-16T05:33:31.634Z,23.34
2023-04-16T05:35:58.449Z,23.30
2023-04-16T05:38:26.592Z,23.33
2023-04-16T05:40:53.519Z,23.34
2023-04-16T05:43:20.321Z,23.31
2023-04-16T05:45:47.208Z,23.49
2023-04-16T05:48:14.008Z,23.52
2023-04-16T05:50:40.863Z,23.57
2023-04-16T05:53:08.993Z,23.48
2023-04-16T05:55:37.153Z,23.40
2023-04-16T05:58:04.360Z,23.18
2023-04-16T06:00:31.418Z,23.09
2023-04-16T06:02:58.549Z,23.07
2023-04-16T06:05:25.905Z,23.17
2023-04-16T06:07:52.778Z,23.17
2023-04-16T06:10:19.645Z,23.17
2023-04-16T06:12:47.868Z,23.23
2023-04-16T06:15:14.710Z,23.30
2023-04-16T06:17:41.658Z,23.36
2023-04-16T06:20:09.006Z,23.42
2023-04-16T06:22:35.858Z,23.69
2023-04-16T06:25:02.722Z,24.07
2023-04-16T06:27:29.617Z,24.31
2023-04-16T06:29:57.930Z,24.42
2023-04-16T06:32:24.915Z,24.45
2023-04-16T06:34:51.780Z,24.43
2023-04-16T06:37:18.649Z,24.40
2023-04-16T06:39:45.465Z,24.38
2023-04-16T06:42:12.424Z,24.31
2023-04-16T06:44:39.238Z,24.24
2023-04-16T06:47:07.768Z,24.19
2023-04-16T06:49:34.716Z,24.16
2023-04-16T06:52:02.764Z,24.12
2023-04-16T06:54:30.762Z,24.05
2023-04-16T06:56:57.594Z,24.00
2023-04-16T06:59:24.605Z,23.89
2023-04-16T07:01:51.774Z,23.88
2023-04-16T07:04:20.096Z,23.92
2023-04-16T07:06:46.916Z,23.94
2023-04-16T07:09:13.730Z,23.90
2023-04-16T07:11:40.914Z,23.84
2023-04-16T07:14:07.767Z,23.74
2023-04-16T07:16:34.662Z,23.80
2023-04-16T07:19:01.570Z,23.84
2023-04-16T07:21:29.804Z,23.76
2023-04-16T07:23:56.629Z,23.83
2023-04-16T07:26:23.614Z,23.89
2023-04-16T07:28:50.412Z,24.07
2023-04-16T07:31:17.395Z,24.08
2023-04-16T07:33:44.462Z,24.05
2023-04-16T07:36:11.268Z,24.03
2023-04-16T07:38:39.489Z,24.03
2023-04-16T07:41:06.630Z,24.01
2023-04-16T07:43:33.442Z,23.96
2023-04-16T07:46:00.261Z,23.94
2023-04-16T07:48:27.150Z,23.95
2023-04-16T07:50:54.073Z,23.95
2023-04-16T07:53:21.046Z,23.95
2023-04-16T07:55:49.219Z,23.92
2023-04-16T07:58:16.039Z,23.88
2023-04-16T08:00:42.987Z,23.93
2023-04-16T08:03:10.091Z,23.82
2023-04-16T08:05:37.105Z,23.85
2023-04-16T08:08:03.988Z,23.81
2023-04-16T08:10:30.856Z,23.89
2023-04-16T08:12:59.929Z,23.93
2023-04-16T08:15:26.883Z,23.98
2023-04-16T08:17:53.748Z,23.95
2023-04-16T08:20:20.634Z,23.90
2023-04-16T08:22:47.866Z,23.83
2023-04-16T08:25:14.863Z,23.80
2023-04-16T08:27:41.688Z,23.76
2023-04-16T08:30:10.153Z,23.80
2023-04-16T08:32:36.980Z,23.78
2023-04-16T08:35:04.021Z,23.87
2023-04-16T08:37:30.853Z,23.90
2023-04-16T08:39:57.665Z,23.93
2023-04-16T08:42:28.984Z,23.89
2023-04-16T08:45:03.166Z,23.81
2023-04-16T08:47:34.333Z,23.72
2023-04-16T08:50:02.960Z,23.81
2023-04-16T08:52:30.603Z,23.85
2023-04-16T08:55:01.278Z,23.78
2023-04-16T08:57:30.717Z,23.83
2023-04-16T08:59:58.023Z,23.81
2023-04-16T09:02:25.997Z,23.78
2023-04-16T09:04:55.530Z,23.76
2023-04-16T09:07:23.913Z,23.83
2023-04-16T09:09:53.016Z,23.98
2023-04-16T09:12:23.250Z,24.13
2023-04-16T09:14:50.048Z,24.31
2023-04-16T09:17:16.972Z,24.34
2023-04-16T09:19:43.845Z,24.44
2023-04-16T09:22:12.138Z,24.48
2023-04-16T09:24:38.952Z,24.47
2023-04-16T09:27:07.726Z,24.70
2023-04-16T09:29:34.606Z,24.77
2023-04-16T09:32:02.316Z,24.58
2023-04-16T09:34:29.215Z,24.40
2023-04-16T09:36:55.999Z,24.24
2023-04-16T09:39:24.350Z,24.22
2023-04-16T09:41:53.050Z,24.24
2023-04-16T09:44:19.899Z,24.18
2023-04-16T09:46:46.692Z,24.09
2023-04-16T09:49:14.568Z,23.88
2023-04-16T09:51:41.624Z,23.99
2023-04-16T09:54:08.502Z,23.97
2023-04-16T09:56:41.291Z,23.93
2023-04-16T09:59:08.783Z,23.93
2023-04-16T10:01:36.385Z,23.92
2023-04-16T10:04:06.404Z,23.91
2023-04-16T10:06:33.213Z,23.85
2023-04-16T10:09:00.017Z,23.88
2023-04-16T10:11:26.836Z,23.93
2023-04-16T10:13:54.996Z,23.98
2023-04-16T10:16:22.389Z,23.98
2023-04-16T10:18:49.271Z,23.98
2023-04-16T10:21:16.433Z,23.95
2023-04-16T10:23:43.736Z,23.94
2023-04-16T10:26:10.768Z,23.94
2023-04-16T10:28:37.606Z,23.91
2023-04-16T10:31:07.525Z,23.93
2023-04-16T10:33:35.387Z,23.89
2023-04-16T10:36:11.620Z,23.90
2023-04-16T10:38:39.676Z,23.88
2023-04-16T10:41:07.147Z,23.85
2023-04-16T10:43:38.459Z,23.78
2023-04-16T10:46:23.106Z,23.75
2023-04-16T10:48:53.172Z,23.74
2023-04-16T10:51:24.540Z,23.73
2023-04-16T10:53:51.436Z,23.74
2023-04-16T10:56:22.909Z,23.74
2023-04-16T10:58:49.785Z,23.81
2023-04-16T11:01:16.639Z,23.86
2023-04-16T11:03:44.207Z,23.86
2023-04-16T11:06:16.239Z,23.88
2023-04-16T11:08:54.007Z,23.88
2023-04-16T11:11:22.065Z,23.86
2023-04-16T11:13:48.872Z,23.87
2023-04-16T11:16:16.329Z,23.85
2023-04-16T11:18:51.007Z,23.84
2023-04-16T11:21:20.084Z,23.85
2023-04-16T11:23:47.479Z,23.85
2023-04-16T11:26:21.260Z,23.85
2023-04-16T11:28:48.080Z,23.83
2023-04-16T11:31:14.917Z,23.77
2023-04-16T11:33:42.423Z,23.72
2023-04-16T11:36:09.329Z,23.72
2023-04-16T11:38:38.061Z,23.70
2023-04-16T11:41:04.866Z,23.71
2023-04-16T11:43:31.773Z,23.72
2023-04-16T11:45:59.310Z,23.76
2023-04-16T11:48:26.316Z,23.82
2023-04-16T11:50:56.445Z,23.84
2023-04-16T11:53:23.367Z,23.83
2023-04-16T11:55:51.635Z,23.82
2023-04-16T11:58:18.506Z,23.81
2023-04-16T12:00:45.558Z,23.80
2023-04-16T12:03:12.600Z,23.81
2023-04-16T12:05:40.444Z,23.82
2023-04-16T12:08:07.876Z,23.83
2023-04-16T12:10:35.773Z,23.80
2023-04-16T12:13:13.860Z,23.77
2023-04-16T12:15:44.014Z,23.80
2023-04-16T12:18:10.882Z,23.75
2023-04-16T12:20:39.648Z,23.72
2023-04-16T12:23:06.483Z,23.68
2023-04-16T12:25:33.354Z,23.69
2023-04-16T12:28:00.408Z,23.68
2023-04-16T12:30:28.617Z,23.68
2023-04-16T12:33:10.412Z,23.72
2023-04-16T12:35:37.369Z,23.78
2023-04-16T12:38:04.207Z,23.82
2023-04-16T12:40:31.284Z,23.61
2023-04-16T12:42:58.128Z,23.86
2023-04-16T12:45:25.440Z,23.83
2023-04-16T12:47:53.861Z,23.83
2023-04-16T12:50:20.664Z,23.88
2023-04-16T12:52:47.643Z,23.90
2023-04-16T12:55:14.507Z,23.90
2023-04-16T12:57:41.319Z,23.93
2023-04-16T13:00:08.606Z,23.80
2023-04-16T13:02:35.571Z,23.88
2023-04-16T13:05:03.979Z,23.87
2023-04-16T13:07:30.790Z,23.79
2023-04-16T13:09:57.676Z,23.81
2023-04-16T13:12:24.567Z,23.77
2023-04-16T13:14:51.362Z,23.76
2023-04-16T13:17:18.236Z,23.77
2023-04-16T13:19:45.019Z,23.76
2023-04-16T13:22:13.181Z,23.81
2023-04-16T13:24:39.991Z,23.91
2023-04-16T13:27:06.823Z,23.93
2023-04-16T13:29:33.645Z,23.93
2023-04-16T13:32:00.526Z,23.97
2023-04-16T13:34:27.360Z,23.96
2023-04-16T13:36:54.224Z,24.00
2023-04-16T13:39:22.507Z,23.98
2023-04-16T13:41:49.333Z,24.01
2023-04-16T13:44:16.152Z,24.01
2023-04-16T13:46:43.046Z,23.96
2023-04-16T13:49:10.129Z,23.99
2023-04-16T13:51:36.973Z,23.98
2023-04-16T13:54:03.985Z,23.96
2023-04-16T13:56:32.143Z,23.92
2023-04-16T13:58:58.950Z,23.86
2023-04-16T14:01:25.855Z,23.81
2023-04-16T14:03:52.807Z,23.80
2023-04-16T14:06:19.730Z,23.80
2023-04-16T14:08:46.601Z,23.78
2023-04-16T14:11:13.400Z,23.86
2023-04-16T14:13:41.795Z,23.87
2023-04-16T14:16:08.640Z,23.87
2023-04-16T14:18:35.474Z,23.91
2023-04-16T14:21:02.326Z,23.87
2023-04-16T14:23:29.192Z,23.87
2023-04-16T14:25:56.006Z,23.89
2023-04-16T14:28:22.818Z,23.87
2023-04-16T14:30:51.011Z,23.89
2023-04-16T14:33:17.817Z,23.87
2023-04-16T14:35:44.637Z,23.86
2023-04-16T14:38:11.563Z,23.92
2023-04-16T14:40:38.386Z,24.03
2023-04-16T14:43:05.209Z,24.04
2023-04-16T14:45:32.064Z,23.98
2023-04-16T14:48:00.252Z,23.95
2023-04-16T14:50:27.551Z,23.96
2023-04-16T14:52:54.506Z,24.00
2023-04-16T14:55:21.501Z,24.01
2023-04-16T14:57:48.320Z,24.01
2023-04-16T15:00:15.542Z,24.01
2023-04-16T15:02:42.516Z,24.03
2023-04-16T15:05:10.895Z,24.04
2023-04-16T15:07:37.757Z,24.02
2023-04-16T15:10:04.979Z,24.01
2023-04-16T15:12:31.796Z,24.01
2023-04-16T15:14:58.647Z,23.99
2023-04-16T15:17:25.835Z,23.97
2023-04-16T15:19:52.714Z,24.00
2023-04-16T15:22:20.908Z,23.97
2023-04-16T15:24:47.714Z,23.96
2023-04-16T15:27:14.532Z,23.98
2023-04-16T15:29:41.361Z,23.95
2023-04-16T15:32:08.188Z,23.95
2023-04-16T15:34:34.993Z,23.91
2023-04-16T15:37:02.018Z,23.88
2023-04-16T15:39:30.848Z,23.88
2023-04-16T15:42:01.261Z,24.00
2023-04-16T15:44:29.628Z,24.12
2023-04-16T15:46:56.476Z,24.15
2023-04-16T15:49:23.292Z,24.23
2023-04-16T15:51:50.614Z,24.24
2023-04-16T15:54:17.462Z,24.34
2023-04-16T15:56:45.707Z,24.09
2023-04-16T15:59:12.877Z,24.06
2023-04-16T16:01:39.820Z,23.90
2023-04-16T16:04:06.857Z,23.82
2023-04-16T16:06:33.999Z,23.76
2023-04-16T16:09:00.883Z,23.71
2023-04-16T16:11:27.704Z,23.70
2023-04-16T16:13:55.884Z,23.71
2023-04-16T16:16:22.718Z,23.73
2023-04-16T16:18:49.592Z,23.61
2023-04-16T16:21:16.435Z,23.53
2023-04-16T16:23:43.241Z,23.54
2023-04-16T16:26:10.044Z,23.49
2023-04-16T16:28:36.870Z,23.44
2023-04-16T16:31:05.392Z,23.41
2023-04-16T16:33:32.539Z,23.36
2023-04-16T16:35:59.370Z,23.32
2023-04-16T16:38:26.212Z,23.32
2023-04-16T16:40:52.991Z,23.28
2023-04-16T16:43:19.903Z,23.29
2023-04-16T16:45:46.768Z,23.29
2023-04-16T16:48:14.922Z,23.24
2023-04-16T16:50:41.777Z,23.13
2023-04-16T16:53:08.620Z,23.14
2023-04-16T16:55:35.431Z,23.08
2023-04-16T16:58:02.814Z,23.04
2023-04-16T17:00:29.673Z,22.99
2023-04-16T17:02:56.625Z,22.96
2023-04-16T17:05:24.974Z,22.90
2023-04-16T17:07:51.827Z,22.88
2023-04-16T17:10:18.673Z,22.85
2023-04-16T17:12:45.603Z,22.80
2023-04-16T17:15:12.399Z,22.79
2023-04-16T17:17:39.217Z,22.81
2023-04-16T17:20:06.598Z,22.79
2023-04-16T17:22:34.807Z,22.84
2023-04-16T17:25:01.648Z,22.81
2023-04-16T17:27:28.506Z,22.83
2023-04-16T17:29:55.296Z,22.78
2023-04-16T17:32:22.174Z,22.79
2023-04-16T17:34:49.246Z,22.75
2023-04-16T17:37:16.102Z,22.80
2023-04-16T17:39:44.254Z,22.80
2023-04-16T17:42:11.100Z,22.93
2023-04-16T17:44:37.912Z,23.01
2023-04-16T17:47:05.144Z,23.03
2023-04-16T17:49:31.970Z,23.21
2023-04-16T17:51:58.773Z,23.22
2023-04-16T17:54:25.568Z,23.28
2023-04-16T17:56:53.945Z,23.32
2023-04-16T17:59:21.593Z,23.44
2023-04-16T18:01:48.491Z,23.66
2023-04-16T18:04:15.730Z,23.91
2023-04-16T18:06:42.953Z,24.06
2023-04-16T18:09:09.776Z,24.09
2023-04-16T18:11:36.617Z,24.09
2023-04-16T18:14:04.788Z,24.10
2023-04-16T18:16:31.619Z,24.07
2023-04-16T18:18:58.464Z,24.05
2023-04-16T18:21:25.269Z,24.03
2023-04-16T18:23:52.048Z,24.02
2023-04-16T18:26:21.125Z,24.00
2023-04-16T18:28:49.645Z,24.00
2023-04-16T18:31:20.897Z,23.96
2023-04-16T18:33:56.840Z,23.96
2023-04-16T18:36:25.025Z,23.92
2023-04-16T18:39:01.127Z,23.91
2023-04-16T18:41:29.223Z,23.88
2023-04-16T18:43:56.232Z,23.89
2023-04-16T18:46:24.624Z,23.79
2023-04-16T18:48:51.450Z,23.95
2023-04-16T18:51:18.292Z,24.09
2023-04-16T18:53:45.104Z,23.76
2023-04-16T18:56:11.932Z,23.92
2023-04-16T18:58:38.974Z,23.92
2023-04-16T19:01:05.883Z,23.95
2023-04-16T19:03:34.180Z,23.95
2023-04-16T19:06:01.283Z,23.96
2023-04-16T19:08:28.154Z,24.00
2023-04-16T19:10:54.985Z,23.96
2023-04-16T19:13:21.928Z,23.94
2023-04-16T19:15:48.788Z,23.90
2023-04-16T19:18:15.668Z,24.02
2023-04-16T19:20:43.854Z,24.06
2023-04-16T19:23:10.777Z,24.03
2023-04-16T19:25:37.647Z,23.97
2023-04-16T19:28:04.656Z,23.98
2023-04-16T19:30:31.615Z,23.98
2023-04-16T19:32:58.514Z,23.97
2023-04-16T19:35:25.735Z,23.91
2023-04-16T19:37:53.900Z,23.84
2023-04-16T19:40:20.690Z,23.86
2023-04-16T19:42:47.562Z,23.82
2023-04-16T19:45:14.434Z,23.87
2023-04-16T19:47:41.268Z,23.86
2023-04-16T19:50:08.504Z,23.88
2023-04-16T19:52:35.325Z,23.91
2023-04-16T19:55:03.642Z,23.96
2023-04-16T19:57:30.511Z,23.92
2023-04-16T19:59:57.303Z,23.95
2023-04-16T20:02:24.277Z,23.95
2023-04-16T20:04:51.593Z,24.00
2023-04-16T20:07:18.470Z,23.97
2023-04-16T20:09:45.314Z,23.86
2023-04-16T20:12:13.512Z,23.80
2023-04-16T20:14:40.285Z,23.79
2023-04-16T20:17:07.178Z,23.68
2023-04-16T20:19:34.211Z,23.65
2023-04-16T20:22:00.997Z,23.63
2023-04-16T20:24:27.791Z,23.54
2023-04-16T20:26:54.724Z,23.45
2023-04-16T20:29:22.873Z,23.44
2023-04-16T20:31:49.671Z,23.44
2023-04-16T20:34:16.496Z,23.44
2023-04-16T20:36:43.297Z,23.43
2023-04-16T20:39:10.205Z,23.45
2023-04-16T20:41:37.357Z,23.45
2023-04-16T20:44:04.354Z,23.38
2023-04-16T20:46:32.594Z,23.39
2023-04-16T20:48:59.477Z,23.34
2023-04-16T20:51:26.351Z,23.33
2023-04-16T20:53:53.285Z,23.30
2023-04-16T20:56:20.142Z,23.29
2023-04-16T20:58:46.937Z,23.30
2023-04-16T21:01:13.755Z,23.31
2023-04-16T21:03:42.199Z,23.27
2023-04-16T21:06:09.211Z,23.27
2023-04-16T21:08:36.029Z,23.22
2023-04-16T21:11:03.008Z,23.21
2023-04-16T21:13:29.844Z,23.19
2023-04-16T21:15:56.704Z,23.23
2023-04-16T21:18:23.593Z,23.22
2023-04-16T21:20:51.743Z,23.25
2023-04-16T21:23:18.553Z,23.23
2023-04-16T21:25:45.445Z,23.25
2023-04-16T21:28:12.247Z,23.28
2023-04-16T21:30:39.037Z,23.34
2023-04-16T21:33:06.321Z,23.37
2023-04-16T21:35:33.392Z,23.34
2023-04-16T21:38:01.569Z,23.31
2023-04-16T21:40:28.393Z,23.30
2023-04-16T21:42:55.216Z,23.28
2023-04-16T21:45:22.023Z,23.24
2023-04-16T21:47:48.950Z,23.22
2023-04-16T21:50:15.781Z,23.19
2023-04-16T21:52:42.847Z,23.21
2023-04-16T21:55:10.996Z,23.19
2023-04-16T21:57:39.601Z,23.16
2023-04-16T22:00:07.525Z,23.13
2023-04-16T22:02:34.482Z,23.14
2023-04-16T22:05:01.509Z,23.16
2023-04-16T22:07:28.326Z,23.18
2023-04-16T22:09:55.136Z,23.16
2023-04-16T22:12:23.335Z,23.15
2023-04-16T22:17:22.644Z,23.22
2023-04-16T22:19:49.727Z,23.22
2023-04-16T22:22:16.566Z,23.27
2023-04-16T22:24:43.381Z,23.23
2023-04-16T22:27:10.171Z,23.23
2023-04-16T22:29:38.352Z,23.23
2023-04-16T22:32:05.491Z,23.21
2023-04-16T22:34:32.308Z,23.22
2023-04-16T22:36:59.131Z,23.15
2023-04-16T22:39:25.928Z,23.16
2023-04-16T22:41:52.714Z,23.19
2023-04-16T22:44:19.556Z,23.15
2023-04-16T22:46:47.748Z,23.11
2023-04-16T22:49:14.554Z,23.09
2023-04-16T22:51:41.425Z,23.08
2023-04-16T22:54:08.317Z,23.11
2023-04-16T22:56:35.198Z,23.10
2023-04-16T22:59:02.037Z,23.08
2023-04-16T23:01:28.985Z,23.11
2023-04-16T23:03:57.212Z,23.12
2023-04-16T23:06:24.252Z,23.15
2023-04-16T23:08:51.051Z,23.16
2023-04-16T23:11:17.864Z,23.18
2023-04-16T23:13:44.857Z,23.15
2023-04-16T23:16:11.769Z,23.16
2023-04-16T23:18:38.596Z,23.16
2023-04-16T23:21:06.878Z,23.16
2023-04-16T23:23:33.674Z,23.14
2023-04-16T23:26:00.483Z,23.12
2023-04-16T23:28:27.366Z,23.11
2023-04-16T23:30:54.333Z,23.10
2023-04-16T23:33:21.151Z,23.11
2023-04-16T23:35:47.969Z,23.11
2023-04-16T23:38:16.124Z,23.06
2023-04-16T23:40:42.912Z,23.04
2023-04-16T23:43:09.726Z,23.04
2023-04-16T23:45:36.631Z,23.03
2023-04-16T23:48:03.635Z,23.03
2023-04-16T23:50:30.502Z,23.02
2023-04-16T23:52:57.301Z,23.05
2023-04-16T23:55:25.500Z,23.09
2023-04-16T23:57:52.478Z,23.12
